Accueil
METAR-TAF:

METAR-TAF

Aéroports :

Aéroport Léonard-de-Vinci de Rome Fiumicino

Rome-Fiumicino, Italie

latitude: 41-48N, longitude: 012-14E, altitude: 2 m

Observation

Le bulletin a été fait il y a 10 minutes, à 23:20 UTC
Vent 4 kt de nord-est
Température 21°C
Humidité 83%
Pression 1015 hPa
Visibilité 10 km ou plus
pas de nuages en-dessous de 1500 mètres et pas de cumulonimbus.

METAR: LIRF 032320Z 05004KT CAVOK 21/18 Q1015 NOSIG

Heure: 01:30 (23:30 UTC)

Prévision

Le bulletin a été fait il y a 6 heures et 30 minutes, à 17:00 UTC
Prévision valable du 03 à 18 UTC au 04 à 24 UTC
Vent 4 kt de direction variable
Visibilité 10 km ou plus
Nuages épars à une hauteur de 4000 ft
Evoluant progressivement
du 04 à 09 UTC au 04 à 11 UTC
Vent 10 kt de ouest/sud-ouest
Evoluant progressivement
du 04 à 16 UTC au 04 à 18 UTC
Vent 5 kt de direction variable

TAF: LIRF 031700Z 0318/0424 VRB04KT 9999 SCT040 BECMG 0409/0411 24010KT BECMG 0416/0418 VRB05KT

Observations et prévisions météorologiques de plus de 4000 aéroports (messages METAR et TAF).

Les stations disponibles sont représentées par des disques jaunes et rouges sur la carte.

Passer la souris dessus pour voir le nom de la station.

Cliquer dessus pour voir les observations et prévisions météorologiques.

Pour changer de carte: cliquez sur les boutons verts avec une croix noire pour zoomer, sur le bouton vert avec un tiret pour effectuer un zoom arrière, ou sur les flèches vertes pour les cartes adjacentes.


METAR-TAF: